AUA189 LOWW-EDDM
Flight info
| Callsign | AUA189 |
|---|---|
| Flight time | 0h 39m |
| Altitude | 30000 |
| Route | SOVIL1C/29 SOVIL DCT SITNI DCT BAGSI DCT MATIG DCT AMADI Q113 NAPSA NAPSA4A |
| Aircraft | A320/M-SDE3FGHIRWY/LB1 |
Departure
| Time | 2026-04-30 18:08 |
|---|---|
| Airport | Vienna International Airport (LOWW) |
Arrival
| Time | 2026-04-30 18:47 |
|---|---|
| Airport | Munich Airport (EDDM) |
| Time | Latitude | Longitude | Altitude | Speed | Heading |
|---|---|---|---|---|---|
| 2026-04-30 17:47 | 48.11901 | 16.56769 | 608 ft | 0 kts | 205° |
| 2026-04-30 17:59 | 48.11921 | 16.56782 | 609 ft | 2 kts | 205° |
| 2026-04-30 18:00 | 48.11975 | 16.56820 | 609 ft | 2 kts | 205° |
| 2026-04-30 18:00 | 48.12009 | 16.56811 | 609 ft | 0 kts | 121° |
| 2026-04-30 18:01 | 48.12013 | 16.56800 | 609 ft | 0 kts | 115° |
| 2026-04-30 18:02 | 48.12010 | 16.56806 | 609 ft | 1 kts | 115° |
| 2026-04-30 18:03 | 48.11954 | 16.56978 | 609 ft | 12 kts | 116° |
| 2026-04-30 18:04 | 48.11821 | 16.57314 | 609 ft | 9 kts | 118° |
| 2026-04-30 18:05 | 48.11450 | 16.57430 | 609 ft | 14 kts | 207° |
| 2026-04-30 18:06 | 48.11054 | 16.57139 | 608 ft | 3 kts | 211° |
| 2026-04-30 18:07 | 48.11753 | 16.54950 | 644 ft | 162 kts | 296° |
| 2026-04-30 18:08 | 48.11758 | 16.50022 | 2507 ft | 183 kts | 237° |
| 2026-04-30 18:09 | 48.08293 | 16.42651 | 3936 ft | 253 kts | 235° |
| 2026-04-30 18:10 | 48.03798 | 16.33487 | 6468 ft | 286 kts | 244° |
| 2026-04-30 18:11 | 48.03389 | 16.21769 | 9488 ft | 294 kts | 276° |
| 2026-04-30 18:11 | 48.03604 | 16.12290 | 11119 ft | 328 kts | 275° |
| 2026-04-30 18:12 | 48.03781 | 16.01761 | 13001 ft | 347 kts | 275° |
| 2026-04-30 18:13 | 48.03891 | 15.94498 | 14289 ft | 355 kts | 276° |
| 2026-04-30 18:13 | 48.04042 | 15.84576 | 15926 ft | 365 kts | 276° |
| 2026-04-30 18:14 | 48.04167 | 15.75667 | 17272 ft | 372 kts | 276° |
| 2026-04-30 18:15 | 48.04323 | 15.63930 | 18873 ft | 383 kts | 277° |
| 2026-04-30 18:15 | 48.04470 | 15.51861 | 20389 ft | 393 kts | 277° |
| 2026-04-30 18:16 | 48.04563 | 15.43632 | 21341 ft | 400 kts | 277° |
| 2026-04-30 18:16 | 48.04657 | 15.35264 | 22240 ft | 407 kts | 278° |
| 2026-04-30 18:17 | 48.04723 | 15.31059 | 22667 ft | 410 kts | 277° |
| 2026-04-30 18:17 | 48.04795 | 15.26776 | 23077 ft | 414 kts | 278° |
| 2026-04-30 18:17 | 48.04936 | 15.18163 | 23945 ft | 419 kts | 277° |
| 2026-04-30 18:18 | 48.05001 | 15.13803 | 24338 ft | 423 kts | 278° |
| 2026-04-30 18:18 | 48.05065 | 15.09416 | 24731 ft | 426 kts | 277° |
| 2026-04-30 18:18 | 48.05129 | 15.04987 | 25106 ft | 429 kts | 278° |
| 2026-04-30 18:18 | 48.05193 | 15.00522 | 25529 ft | 431 kts | 278° |
| 2026-04-30 18:19 | 48.05254 | 14.96043 | 25860 ft | 435 kts | 278° |
| 2026-04-30 18:19 | 48.05312 | 14.91487 | 26235 ft | 437 kts | 278° |
| 2026-04-30 18:19 | 48.05368 | 14.86986 | 26696 ft | 437 kts | 278° |
| 2026-04-30 18:19 | 48.05419 | 14.82475 | 27191 ft | 436 kts | 278° |
| 2026-04-30 18:20 | 48.05459 | 14.77943 | 27679 ft | 435 kts | 278° |
| 2026-04-30 18:20 | 48.05494 | 14.73471 | 28126 ft | 435 kts | 278° |
| 2026-04-30 18:20 | 48.05526 | 14.68995 | 28549 ft | 435 kts | 278° |
| 2026-04-30 18:20 | 48.05560 | 14.64447 | 28914 ft | 437 kts | 278° |
| 2026-04-30 18:21 | 48.05593 | 14.59930 | 29259 ft | 439 kts | 278° |
| 2026-04-30 18:21 | 48.05626 | 14.55336 | 29610 ft | 441 kts | 278° |
| 2026-04-30 18:21 | 48.05656 | 14.50768 | 29901 ft | 444 kts | 278° |
| 2026-04-30 18:21 | 48.05681 | 14.46136 | 30242 ft | 446 kts | 278° |
| 2026-04-30 18:22 | 48.05709 | 14.41546 | 30367 ft | 448 kts | 279° |
| 2026-04-30 18:22 | 48.05774 | 14.27611 | 30381 ft | 448 kts | 278° |
| 2026-04-30 18:23 | 48.05808 | 14.18282 | 30389 ft | 450 kts | 278° |
| 2026-04-30 18:23 | 48.05830 | 14.08951 | 30376 ft | 449 kts | 278° |
| 2026-04-30 18:24 | 48.05863 | 13.94983 | 30337 ft | 452 kts | 278° |
| 2026-04-30 18:24 | 48.05867 | 13.90308 | 30058 ft | 449 kts | 278° |
| 2026-04-30 18:25 | 48.05868 | 13.85640 | 29760 ft | 445 kts | 278° |
| 2026-04-30 18:25 | 48.05872 | 13.76469 | 29203 ft | 440 kts | 278° |
| 2026-04-30 18:25 | 48.05868 | 13.71913 | 28915 ft | 438 kts | 278° |
| 2026-04-30 18:26 | 48.06346 | 13.63022 | 28368 ft | 429 kts | 287° |
| 2026-04-30 18:26 | 48.06804 | 13.58662 | 28097 ft | 428 kts | 288° |
| 2026-04-30 18:26 | 48.07264 | 13.54255 | 27830 ft | 428 kts | 287° |
| 2026-04-30 18:27 | 48.08127 | 13.45459 | 27297 ft | 429 kts | 286° |
| 2026-04-30 18:27 | 48.08538 | 13.41056 | 27029 ft | 429 kts | 286° |
| 2026-04-30 18:28 | 48.09346 | 13.32217 | 26487 ft | 429 kts | 285° |
| 2026-04-30 18:28 | 48.09746 | 13.27773 | 26212 ft | 429 kts | 285° |
| 2026-04-30 18:28 | 48.10532 | 13.18969 | 25684 ft | 430 kts | 284° |
| 2026-04-30 18:29 | 48.10927 | 13.14488 | 25355 ft | 429 kts | 284° |
| 2026-04-30 18:29 | 48.12049 | 13.01599 | 24014 ft | 417 kts | 284° |
| 2026-04-30 18:30 | 48.12788 | 12.93083 | 23119 ft | 410 kts | 284° |
| 2026-04-30 18:30 | 48.13511 | 12.84699 | 22229 ft | 404 kts | 283° |
| 2026-04-30 18:31 | 48.13863 | 12.80562 | 21788 ft | 400 kts | 283° |
| 2026-04-30 18:31 | 48.14555 | 12.72389 | 20895 ft | 394 kts | 283° |
| 2026-04-30 18:32 | 48.15232 | 12.64344 | 20020 ft | 388 kts | 283° |
| 2026-04-30 18:32 | 48.15565 | 12.60364 | 19584 ft | 385 kts | 283° |
| 2026-04-30 18:32 | 48.16218 | 12.52467 | 18702 ft | 381 kts | 283° |
| 2026-04-30 18:33 | 48.16540 | 12.48568 | 18269 ft | 378 kts | 282° |
| 2026-04-30 18:33 | 48.17176 | 12.40824 | 17394 ft | 373 kts | 282° |
| 2026-04-30 18:33 | 48.17487 | 12.37026 | 16899 ft | 372 kts | 282° |
| 2026-04-30 18:34 | 48.17801 | 12.33176 | 16397 ft | 371 kts | 281° |
| 2026-04-30 18:34 | 48.18415 | 12.25544 | 15395 ft | 368 kts | 280° |
| 2026-04-30 18:34 | 48.18716 | 12.21787 | 14899 ft | 367 kts | 281° |
| 2026-04-30 18:35 | 48.19016 | 12.18010 | 14397 ft | 365 kts | 280° |
| 2026-04-30 18:35 | 48.19318 | 12.14222 | 13894 ft | 363 kts | 280° |
| 2026-04-30 18:35 | 48.19611 | 12.10531 | 13401 ft | 361 kts | 279° |
| 2026-04-30 18:36 | 48.20194 | 12.03108 | 12398 ft | 357 kts | 279° |
| 2026-04-30 18:36 | 48.20483 | 11.99398 | 11889 ft | 355 kts | 279° |
| 2026-04-30 18:36 | 48.21048 | 11.92121 | 10884 ft | 349 kts | 278° |
| 2026-04-30 18:37 | 48.21324 | 11.88541 | 10391 ft | 347 kts | 278° |
| 2026-04-30 18:37 | 48.21594 | 11.85020 | 9886 ft | 335 kts | 278° |
| 2026-04-30 18:37 | 48.21851 | 11.81633 | 9362 ft | 320 kts | 278° |
| 2026-04-30 18:37 | 48.22095 | 11.78416 | 8858 ft | 306 kts | 278° |
| 2026-04-30 18:38 | 48.22332 | 11.75296 | 8355 ft | 296 kts | 278° |
| 2026-04-30 18:38 | 48.22562 | 11.72250 | 7825 ft | 297 kts | 278° |
| 2026-04-30 18:38 | 48.22791 | 11.69216 | 7080 ft | 297 kts | 277° |
| 2026-04-30 18:38 | 48.23022 | 11.66152 | 6324 ft | 296 kts | 277° |
| 2026-04-30 18:39 | 48.23247 | 11.63119 | 5577 ft | 295 kts | 277° |
| 2026-04-30 18:39 | 48.23472 | 11.60079 | 4809 ft | 295 kts | 277° |
| 2026-04-30 18:39 | 48.23645 | 11.57028 | 4240 ft | 295 kts | 273° |
| 2026-04-30 18:39 | 48.23649 | 11.53974 | 3980 ft | 288 kts | 268° |
| 2026-04-30 18:40 | 48.23479 | 11.50964 | 3979 ft | 290 kts | 264° |
| 2026-04-30 18:40 | 48.23375 | 11.47967 | 3962 ft | 286 kts | 279° |
| 2026-04-30 18:40 | 48.24009 | 11.45297 | 3950 ft | 263 kts | 310° |
| 2026-04-30 18:40 | 48.25281 | 11.43573 | 3951 ft | 239 kts | 341° |
| 2026-04-30 18:41 | 48.26834 | 11.42748 | 3969 ft | 234 kts | 352° |
| 2026-04-30 18:41 | 48.28410 | 11.42223 | 3963 ft | 229 kts | 4° |
| 2026-04-30 18:41 | 48.29896 | 11.42683 | 3959 ft | 212 kts | 38° |
| 2026-04-30 18:41 | 48.30887 | 11.44210 | 3978 ft | 205 kts | 62° |
| 2026-04-30 18:42 | 48.31518 | 11.46115 | 3982 ft | 202 kts | 73° |
| 2026-04-30 18:42 | 48.32139 | 11.50201 | 3975 ft | 199 kts | 82° |
| 2026-04-30 18:42 | 48.32341 | 11.52195 | 3959 ft | 185 kts | 83° |
| 2026-04-30 18:45 | 48.33527 | 11.67913 | 2464 ft | 143 kts | 84° |
| 2026-04-30 18:45 | 48.33638 | 11.69393 | 2271 ft | 141 kts | 84° |
| 2026-04-30 18:45 | 48.33744 | 11.70800 | 2064 ft | 131 kts | 84° |
| 2026-04-30 18:46 | 48.33847 | 11.72154 | 1899 ft | 130 kts | 84° |
| 2026-04-30 18:46 | 48.33948 | 11.73500 | 1718 ft | 129 kts | 84° |
| 2026-04-30 18:46 | 48.34050 | 11.74850 | 1555 ft | 129 kts | 84° |
| 2026-04-30 18:46 | 48.34147 | 11.76154 | 1488 ft | 115 kts | 83° |
| 2026-04-30 18:47 | 48.34220 | 11.77096 | 1485 ft | 65 kts | 83° |
| 2026-04-30 18:47 | 48.34262 | 11.77645 | 1483 ft | 48 kts | 83° |
| 2026-04-30 18:47 | 48.34304 | 11.78108 | 1481 ft | 38 kts | 77° |
| 2026-04-30 18:47 | 48.34401 | 11.78401 | 1480 ft | 25 kts | 53° |
| 2026-04-30 18:48 | 48.34488 | 11.78579 | 1480 ft | 18 kts | 53° |
| 2026-04-30 18:48 | 48.34531 | 11.78666 | 1479 ft | 1 kts | 52° |
| 2026-04-30 18:48 | 48.34534 | 11.78671 | 1479 ft | 1 kts | 52° |
| 2026-04-30 18:48 | 48.34535 | 11.78673 | 1479 ft | 0 kts | 52° |
| 2026-04-30 18:49 | 48.34536 | 11.78675 | 1479 ft | 0 kts | 52° |
| 2026-04-30 18:50 | 48.34537 | 11.78678 | 1479 ft | 1 kts | 52° |
| 2026-04-30 18:50 | 48.34552 | 11.78704 | 1479 ft | 5 kts | 51° |
| 2026-04-30 18:50 | 48.34586 | 11.78772 | 1479 ft | 11 kts | 54° |
| 2026-04-30 18:50 | 48.34630 | 11.78900 | 1478 ft | 16 kts | 77° |
| 2026-04-30 18:51 | 48.34646 | 11.79096 | 1477 ft | 20 kts | 83° |
| 2026-04-30 18:51 | 48.34662 | 11.79308 | 1476 ft | 18 kts | 83° |
| 2026-04-30 18:51 | 48.34669 | 11.79396 | 1476 ft | 1 kts | 83° |
| 2026-04-30 18:51 | 48.34671 | 11.79418 | 1476 ft | 3 kts | 83° |
| 2026-04-30 18:52 | 48.34674 | 11.79460 | 1476 ft | 5 kts | 84° |
| 2026-04-30 18:52 | 48.34679 | 11.79529 | 1475 ft | 8 kts | 84° |
| 2026-04-30 18:52 | 48.34687 | 11.79642 | 1475 ft | 10 kts | 83° |
| 2026-04-30 18:52 | 48.34730 | 11.79715 | 1475 ft | 10 kts | 7° |
| 2026-04-30 18:53 | 48.34774 | 11.79709 | 1474 ft | 0 kts | 351° |
| 2026-04-30 18:53 | 48.34796 | 11.79704 | 1474 ft | 5 kts | 351° |
| 2026-04-30 18:54 | 48.34851 | 11.79694 | 1474 ft | 10 kts | 354° |
| 2026-04-30 18:54 | 48.34938 | 11.79680 | 1474 ft | 14 kts | 354° |
| 2026-04-30 18:54 | 48.35030 | 11.79664 | 1474 ft | 10 kts | 353° |
| 2026-04-30 18:54 | 48.35068 | 11.79684 | 1474 ft | 5 kts | 75° |
| 2026-04-30 18:55 | 48.35075 | 11.79768 | 1473 ft | 11 kts | 84° |
| 2026-04-30 18:55 | 48.35099 | 11.80087 | 1473 ft | 11 kts | 84° |
| 2026-04-30 18:55 | 48.35129 | 11.80161 | 1472 ft | 9 kts | 14° |
| 2026-04-30 18:56 | 48.35297 | 11.80138 | 1471 ft | 15 kts | 354° |
| 2026-04-30 18:56 | 48.35408 | 11.80112 | 1471 ft | 16 kts | 351° |
| 2026-04-30 18:56 | 48.35522 | 11.80090 | 1470 ft | 14 kts | 354° |
| 2026-04-30 18:57 | 48.35591 | 11.80059 | 1469 ft | 3 kts | 275° |
| 2026-04-30 18:57 | 48.35588 | 11.80012 | 1469 ft | 5 kts | 263° |
| 2026-04-30 18:57 | 48.35587 | 11.79990 | 1469 ft | 0 kts | 263° |
| 2026-04-30 18:58 | 48.35587 | 11.79989 | 1469 ft | 0 kts | 263° |